createdAt,value
2018-09-19T00:00:59.722Z,0
2018-09-19T00:02:08.380Z,0
2018-09-19T00:03:17.551Z,0
2018-09-19T00:04:26.208Z,0
2018-09-19T00:05:35.390Z,0
2018-09-19T00:06:44.613Z,0
2018-09-19T00:07:53.789Z,0
2018-09-19T00:09:02.435Z,0
2018-09-19T00:10:11.352Z,0
2018-09-19T00:11:19.995Z,0
2018-09-19T00:12:28.649Z,0
2018-09-19T00:13:37.296Z,0
2018-09-19T00:14:45.946Z,0
2018-09-19T00:15:55.123Z,0
2018-09-19T00:17:04.044Z,0
2018-09-19T00:18:13.488Z,0
2018-09-19T00:19:22.135Z,0
2018-09-19T00:20:30.791Z,0
2018-09-19T00:21:39.699Z,0
2018-09-19T00:22:48.369Z,0
2018-09-19T00:23:57.523Z,0
2018-09-19T00:25:06.446Z,0
2018-09-19T00:26:15.359Z,0
2018-09-19T00:27:24.275Z,0
2018-09-19T00:28:33.196Z,0
2018-09-19T00:29:42.100Z,0
2018-09-19T00:30:51.020Z,0
2018-09-19T00:31:59.667Z,0
2018-09-19T00:33:08.587Z,0
2018-09-19T00:34:17.256Z,0
2018-09-19T00:35:25.883Z,0
2018-09-19T00:36:35.057Z,0
2018-09-19T00:37:43.968Z,0
2018-09-19T00:38:52.610Z,0
2018-09-19T00:40:01.261Z,0
2018-09-19T00:41:10.175Z,0
2018-09-19T00:42:19.084Z,0
2018-09-19T00:43:27.993Z,0
2018-09-19T00:44:36.907Z,0
2018-09-19T00:45:46.079Z,0
2018-09-19T00:46:54.736Z,0
2018-09-19T00:48:03.654Z,0
2018-09-19T00:49:12.559Z,0
2018-09-19T00:50:21.209Z,0
2018-09-19T00:51:30.120Z,0
2018-09-19T00:52:39.030Z,0
2018-09-19T00:53:47.678Z,0
2018-09-19T00:54:56.322Z,0
2018-09-19T00:56:05.231Z,0
2018-09-19T00:57:13.882Z,0
2018-09-19T00:58:22.792Z,0
2018-09-19T00:59:31.442Z,0
2018-09-19T01:00:40.359Z,0
2018-09-19T01:01:49.274Z,0
2018-09-19T01:02:58.460Z,0
2018-09-19T01:04:07.635Z,0
2018-09-19T01:05:16.546Z,0
2018-09-19T01:06:25.455Z,0
2018-09-19T01:07:34.379Z,0
2018-09-19T01:08:43.292Z,0
2018-09-19T01:09:51.939Z,0
2018-09-19T01:11:00.588Z,0
2018-09-19T01:12:09.794Z,0
2018-09-19T01:13:18.698Z,0
2018-09-19T01:14:27.609Z,0
2018-09-19T01:15:36.248Z,0
2018-09-19T01:16:44.904Z,0
2018-09-19T01:17:53.817Z,0
2018-09-19T01:19:02.999Z,0
2018-09-19T01:20:11.635Z,0
2018-09-19T01:21:20.286Z,0
2018-09-19T01:22:28.938Z,0
2018-09-19T01:23:37.849Z,0
2018-09-19T01:24:46.504Z,0
2018-09-19T01:25:55.139Z,0
2018-09-19T01:27:04.066Z,0
2018-09-19T01:28:12.715Z,0
2018-09-19T01:29:21.364Z,0
2018-09-19T01:30:30.004Z,0
2018-09-19T01:31:38.666Z,0
2018-09-19T01:32:47.565Z,0
2018-09-19T01:33:56.501Z,0
2018-09-19T01:35:05.139Z,0
2018-09-19T01:36:14.049Z,0
2018-09-19T01:37:22.705Z,0
2018-09-19T01:38:31.885Z,0
2018-09-19T01:39:40.529Z,0
2018-09-19T01:40:49.174Z,0
2018-09-19T01:41:58.079Z,0
2018-09-19T01:43:06.719Z,0
2018-09-19T01:44:15.651Z,0
2018-09-19T01:45:24.555Z,0
2018-09-19T01:46:33.472Z,0
2018-09-19T01:47:42.109Z,0
2018-09-19T01:48:51.303Z,0
2018-09-19T01:49:59.941Z,0
2018-09-19T01:51:08.861Z,0
2018-09-19T01:52:17.553Z,0
2018-09-19T01:53:26.970Z,0
2018-09-19T01:54:35.614Z,0
2018-09-19T01:55:44.530Z,0
2018-09-19T01:56:53.963Z,0
2018-09-19T01:58:02.624Z,0
2018-09-19T01:59:11.286Z,0
2018-09-19T02:00:20.507Z,0
2018-09-19T02:01:29.429Z,0
2018-09-19T02:02:38.064Z,0
2018-09-19T02:03:46.713Z,0
2018-09-19T02:04:55.356Z,0
2018-09-19T02:06:04.284Z,0
2018-09-19T02:07:12.917Z,0
2018-09-19T02:08:22.110Z,0
2018-09-19T02:09:30.753Z,0
2018-09-19T02:10:39.409Z,0
2018-09-19T02:11:48.045Z,0
2018-09-19T02:12:56.959Z,0
2018-09-19T02:14:05.607Z,0
2018-09-19T02:15:14.257Z,0
2018-09-19T02:16:22.906Z,0
2018-09-19T02:17:31.550Z,0
2018-09-19T02:18:40.464Z,0
2018-09-19T02:19:50.174Z,0
2018-09-19T02:20:59.351Z,0
2018-09-19T02:22:08.533Z,0
2018-09-19T02:23:17.447Z,0
2018-09-19T02:24:26.089Z,0
2018-09-19T02:25:35.011Z,0
2018-09-19T02:26:44.733Z,0
2018-09-19T02:27:53.929Z,0
2018-09-19T02:29:02.570Z,0
2018-09-19T02:30:12.324Z,0
2018-09-19T02:31:21.765Z,0
2018-09-19T02:32:31.111Z,0
2018-09-19T02:33:39.630Z,0
2018-09-19T02:34:48.536Z,0
2018-09-19T02:35:57.717Z,0
2018-09-19T02:37:06.939Z,0
2018-09-19T02:38:15.588Z,0
2018-09-19T02:39:24.497Z,0
2018-09-19T02:40:33.679Z,0
2018-09-19T02:41:42.317Z,0
2018-09-19T02:42:50.965Z,0
2018-09-19T02:44:00.141Z,0
2018-09-19T02:45:09.060Z,0
2018-09-19T02:46:17.977Z,0
2018-09-19T02:47:26.633Z,0
2018-09-19T02:48:35.803Z,0
2018-09-19T02:49:44.990Z,0
2018-09-19T02:50:53.648Z,0
2018-09-19T02:52:02.310Z,0
2018-09-19T02:53:11.222Z,0
2018-09-19T02:54:20.392Z,0
2018-09-19T02:55:29.324Z,0
2018-09-19T02:56:38.495Z,0
2018-09-19T02:57:47.424Z,0
2018-09-19T02:58:56.356Z,0
2018-09-19T03:00:05.269Z,0
2018-09-19T03:01:14.177Z,0
2018-09-19T03:02:22.838Z,0
2018-09-19T03:03:32.011Z,0
2018-09-19T03:04:40.663Z,0
2018-09-19T03:05:49.837Z,0
2018-09-19T03:06:58.493Z,0
2018-09-19T03:08:07.405Z,0
2018-09-19T03:09:16.316Z,0
2018-09-19T03:10:24.964Z,0
2018-09-19T03:11:33.612Z,0
2018-09-19T03:12:42.789Z,0
2018-09-19T03:13:51.983Z,0
2018-09-19T03:15:01.443Z,0
2018-09-19T03:16:10.605Z,0
2018-09-19T03:17:19.328Z,0
2018-09-19T03:18:28.293Z,0
2018-09-19T03:19:37.233Z,0
2018-09-19T03:20:46.138Z,0
2018-09-19T03:21:55.065Z,0
2018-09-19T03:23:04.254Z,0
2018-09-19T03:24:13.440Z,0
2018-09-19T03:25:22.352Z,0
2018-09-19T03:26:31.298Z,0
2018-09-19T03:27:40.754Z,0
2018-09-19T03:28:49.407Z,0
2018-09-19T03:29:58.325Z,0
2018-09-19T03:31:06.974Z,0
2018-09-19T03:32:16.189Z,0
2018-09-19T03:33:25.080Z,0
2018-09-19T03:34:33.756Z,0
2018-09-19T03:35:42.680Z,0
2018-09-19T03:36:51.596Z,0
2018-09-19T03:38:00.502Z,0
2018-09-19T03:39:09.427Z,0
2018-09-19T03:40:18.335Z,0
2018-09-19T03:41:26.997Z,0
2018-09-19T03:42:35.632Z,0
2018-09-19T03:43:44.567Z,0
2018-09-19T03:44:53.473Z,0
2018-09-19T03:46:02.653Z,0
2018-09-19T03:47:11.606Z,0
2018-09-19T03:48:20.782Z,0
2018-09-19T03:49:29.702Z,0
2018-09-19T03:50:39.176Z,0
2018-09-19T03:51:48.099Z,0
2018-09-19T03:52:57.001Z,0
2018-09-19T03:54:06.455Z,0
2018-09-19T03:55:15.363Z,0
2018-09-19T03:56:24.022Z,0
2018-09-19T03:57:33.189Z,0
2018-09-19T03:58:42.646Z,0
2018-09-19T03:59:51.285Z,0
2018-09-19T04:00:59.966Z,0
2018-09-19T04:02:09.110Z,0
2018-09-19T04:03:17.756Z,0
2018-09-19T04:04:26.404Z,0
2018-09-19T04:05:35.333Z,0
2018-09-19T04:06:44.245Z,0
2018-09-19T04:07:53.417Z,0
2018-09-19T04:09:02.058Z,0
2018-09-19T04:10:10.980Z,0
2018-09-19T04:11:20.183Z,0
2018-09-19T04:12:29.100Z,0
2018-09-19T04:13:38.275Z,0
2018-09-19T04:14:47.198Z,0
2018-09-19T04:15:55.831Z,0
2018-09-19T04:17:04.744Z,0
2018-09-19T04:18:13.391Z,0
2018-09-19T04:19:22.587Z,0
2018-09-19T04:20:31.231Z,0
2018-09-19T04:21:39.882Z,0
2018-09-19T04:22:48.802Z,0
2018-09-19T04:23:57.720Z,0
2018-09-19T04:25:06.641Z,0
2018-09-19T04:26:15.552Z,0
2018-09-19T04:27:24.227Z,0
2018-09-19T04:28:33.120Z,0
2018-09-19T04:29:41.776Z,0
2018-09-19T04:30:50.692Z,0
2018-09-19T04:31:59.343Z,0
2018-09-19T04:33:08.524Z,0
2018-09-19T04:34:17.178Z,0
2018-09-19T04:35:25.820Z,0
2018-09-19T04:36:34.742Z,0
2018-09-19T04:37:43.658Z,0
2018-09-19T04:38:53.114Z,0
2018-09-19T04:40:02.293Z,0
2018-09-19T04:41:11.495Z,0
2018-09-19T04:42:20.408Z,4
2018-09-19T04:43:29.327Z,4
2018-09-19T04:44:38.244Z,0
2018-09-19T04:45:47.173Z,4
2018-09-19T04:46:55.829Z,4
2018-09-19T04:48:04.735Z,4
2018-09-19T04:49:13.661Z,4
2018-09-19T04:50:22.306Z,8
2018-09-19T04:51:31.451Z,8
2018-09-19T04:52:40.714Z,8
2018-09-19T04:53:49.368Z,12
2018-09-19T04:54:58.013Z,12
2018-09-19T04:56:06.927Z,16
2018-09-19T04:57:15.844Z,20
2018-09-19T04:58:24.775Z,20
2018-09-19T04:59:33.692Z,28
2018-09-19T05:00:42.346Z,32
2018-09-19T05:01:51.791Z,32
2018-09-19T05:03:00.959Z,40
2018-09-19T05:04:09.608Z,44
2018-09-19T05:05:18.249Z,48
2018-09-19T05:06:26.901Z,52
2018-09-19T05:07:35.806Z,60
2018-09-19T05:08:44.991Z,68
2018-09-19T05:09:53.624Z,72
2018-09-19T05:11:02.825Z,84
2018-09-19T05:12:12.551Z,92
2018-09-19T05:13:21.764Z,96
2018-09-19T05:14:30.401Z,104
2018-09-19T05:15:39.318Z,112
2018-09-19T05:16:48.228Z,120
2018-09-19T05:17:57.145Z,132
2018-09-19T05:19:05.790Z,140
2018-09-19T05:20:14.701Z,148
2018-09-19T05:21:23.606Z,160
2018-09-19T05:22:32.252Z,176
2018-09-19T05:23:40.911Z,188
2018-09-19T05:24:49.551Z,196
2018-09-19T05:25:58.199Z,208
2018-09-19T05:27:06.845Z,216
2018-09-19T05:28:15.765Z,228
2018-09-19T05:29:24.717Z,240
2018-09-19T05:30:33.626Z,252
2018-09-19T05:31:42.722Z,268
2018-09-19T05:32:51.333Z,280
2018-09-19T05:33:59.976Z,292
2018-09-19T05:35:09.168Z,300
2018-09-19T05:36:18.340Z,312
2018-09-19T05:37:26.998Z,328
2018-09-19T05:38:35.905Z,344
2018-09-19T05:39:44.552Z,356
2018-09-19T05:40:53.455Z,376
2018-09-19T05:42:02.363Z,392
2018-09-19T05:43:11.553Z,404
2018-09-19T05:44:20.198Z,412
2018-09-19T05:45:28.842Z,428
2018-09-19T05:46:37.557Z,444
2018-09-19T05:47:46.132Z,460
2018-09-19T05:48:55.342Z,484
2018-09-19T05:50:03.984Z,512
2018-09-19T05:51:12.626Z,540
2018-09-19T05:52:21.275Z,576
2018-09-19T05:53:29.916Z,608
2018-09-19T05:54:38.997Z,636
2018-09-19T05:55:47.960Z,664
2018-09-19T05:56:56.607Z,684
2018-09-19T05:58:05.520Z,724
2018-09-19T05:59:14.435Z,748
2018-09-19T06:00:23.077Z,772
2018-09-19T06:01:31.985Z,796
2018-09-19T06:02:40.631Z,828
2018-09-19T06:03:49.285Z,852
2018-09-19T06:04:58.337Z,868
2018-09-19T06:06:07.219Z,900
2018-09-19T06:07:15.864Z,920
2018-09-19T06:08:24.776Z,912
2018-09-19T06:09:33.418Z,932
2018-09-19T06:10:42.075Z,968
2018-09-19T06:11:50.721Z,988
2018-09-19T06:12:59.440Z,1024
2018-09-19T06:14:08.451Z,1044
2018-09-19T06:15:17.126Z,1060
2018-09-19T06:16:26.023Z,1084
2018-09-19T06:17:34.934Z,1096
2018-09-19T06:18:43.578Z,1112
2018-09-19T06:19:52.225Z,1128
2018-09-19T06:21:01.137Z,1140
2018-09-19T06:22:09.779Z,1156
2018-09-19T06:23:18.709Z,1172
2018-09-19T06:24:27.614Z,1192
2018-09-19T06:25:36.539Z,1208
2018-09-19T06:26:45.702Z,1224
2018-09-19T06:27:54.361Z,1240
2018-09-19T06:29:02.997Z,1260
2018-09-19T06:30:11.647Z,1276
2018-09-19T06:31:20.302Z,1296
2018-09-19T06:32:29.219Z,1312
2018-09-19T06:33:38.125Z,1328
2018-09-19T06:34:47.304Z,1348
2018-09-19T06:35:56.211Z,1360
2018-09-19T06:37:04.949Z,1376
2018-09-19T06:38:13.789Z,1384
2018-09-19T06:39:22.959Z,1400
2018-09-19T06:40:31.654Z,1412
2018-09-19T06:41:40.568Z,1428
2018-09-19T06:42:49.486Z,1440
2018-09-19T06:43:58.388Z,1456
2018-09-19T06:45:07.039Z,1468
2018-09-19T06:46:15.685Z,1480
2018-09-19T06:47:24.344Z,1496
2018-09-19T06:48:32.989Z,1504
2018-09-19T06:49:42.163Z,1516
2018-09-19T06:50:50.805Z,1528
2018-09-19T06:51:59.780Z,1540
2018-09-19T06:53:08.362Z,1552
2018-09-19T06:54:17.277Z,1564
2018-09-19T06:55:25.926Z,1584
2018-09-19T06:56:34.567Z,1600
2018-09-19T06:57:43.511Z,1620
2018-09-19T06:58:52.996Z,1628
2018-09-19T07:00:01.919Z,1648
2018-09-19T07:01:10.949Z,1664
2018-09-19T07:02:19.699Z,1680
2018-09-19T07:03:28.400Z,1720
2018-09-19T07:04:37.502Z,1752
2018-09-19T07:05:46.963Z,1780
2018-09-19T07:06:55.885Z,1812
2018-09-19T07:08:04.914Z,1840
2018-09-19T07:09:13.563Z,1848
2018-09-19T07:10:22.230Z,1848
2018-09-19T07:11:30.856Z,1836
2018-09-19T07:12:39.765Z,1812
2018-09-19T07:13:48.676Z,1788
2018-09-19T07:14:57.330Z,1768
2018-09-19T07:16:05.979Z,1724
2018-09-19T07:17:14.630Z,1648
2018-09-19T07:18:23.276Z,1688
2018-09-19T07:19:32.190Z,1688
2018-09-19T07:20:40.836Z,1696
2018-09-19T07:21:49.483Z,1700
2018-09-19T07:22:58.129Z,1692
2018-09-19T07:24:07.308Z,1676
2018-09-19T07:25:16.810Z,1680
2018-09-19T07:26:25.363Z,1704
2018-09-19T07:27:34.271Z,1712
2018-09-19T07:28:43.183Z,1660
2018-09-19T07:29:52.098Z,1528
2018-09-19T07:31:01.152Z,1688
2018-09-19T07:32:10.075Z,1752
2018-09-19T07:33:18.987Z,1768
2018-09-19T07:34:27.903Z,1768
2018-09-19T07:35:36.828Z,1776
2018-09-19T07:36:45.483Z,1796
2018-09-19T07:37:54.391Z,1772
2018-09-19T07:39:03.044Z,1780
2018-09-19T07:40:11.974Z,1788
2018-09-19T07:41:20.885Z,1784
2018-09-19T07:42:29.550Z,1784
2018-09-19T07:43:38.452Z,1796
2018-09-19T07:44:47.368Z,1792
2018-09-19T07:45:56.020Z,1800
2018-09-19T07:47:05.198Z,1812
2018-09-19T07:48:14.107Z,1812
2018-09-19T07:49:22.753Z,1820
2018-09-19T07:50:31.402Z,1820
2018-09-19T07:51:40.323Z,1820
2018-09-19T07:52:49.505Z,1824
2018-09-19T07:53:58.158Z,1840
2018-09-19T07:55:06.801Z,1836
2018-09-19T07:56:16.058Z,1844
2018-09-19T07:57:25.240Z,1860
2018-09-19T07:58:33.889Z,1864
2018-09-19T07:59:42.812Z,1868
2018-09-19T08:00:51.952Z,1892
2018-09-19T08:02:00.515Z,1900
2018-09-19T08:03:09.167Z,1908
2018-09-19T08:04:18.075Z,1912
2018-09-19T08:05:26.732Z,1924
2018-09-19T08:06:35.379Z,1932
2018-09-19T08:07:44.551Z,1940
2018-09-19T08:08:53.256Z,1940
2018-09-19T08:10:02.125Z,1952
2018-09-19T08:11:11.032Z,1964
2018-09-19T08:12:19.952Z,1972
2018-09-19T08:13:28.860Z,1980
2018-09-19T08:14:37.782Z,2000
2018-09-19T08:15:46.948Z,2008
2018-09-19T08:16:56.127Z,2024
2018-09-19T08:18:04.668Z,2028
2018-09-19T08:19:13.323Z,2056
2018-09-19T08:20:22.250Z,2088
2018-09-19T08:21:31.182Z,2076
2018-09-19T08:22:40.266Z,2104
2018-09-19T08:23:49.732Z,2100
2018-09-19T08:24:58.382Z,2076
2018-09-19T08:26:07.297Z,2080
2018-09-19T08:27:16.259Z,2088
2018-09-19T08:28:24.907Z,2072
2018-09-19T08:29:33.821Z,2104
2018-09-19T08:30:43.271Z,2092
2018-09-19T08:31:52.235Z,2096
2018-09-19T08:33:00.877Z,2104
2018-09-19T08:34:09.525Z,2140
2018-09-19T08:35:18.187Z,2132
2018-09-19T08:36:27.373Z,2144
2018-09-19T08:37:36.015Z,2148
2018-09-19T08:38:44.937Z,2152
2018-09-19T08:39:53.587Z,2148
2018-09-19T08:41:02.545Z,2148
2018-09-19T08:42:11.421Z,2152
2018-09-19T08:43:20.343Z,2160
2018-09-19T08:44:28.995Z,2164
2018-09-19T08:45:37.913Z,2168
2018-09-19T08:46:46.564Z,2200
2018-09-19T08:47:55.217Z,2184
2018-09-19T08:49:03.869Z,2204
2018-09-19T08:50:12.513Z,2188
2018-09-19T08:51:21.442Z,2212
2018-09-19T08:52:30.090Z,2224
2018-09-19T08:53:38.742Z,2224
2018-09-19T08:54:47.388Z,2244
2018-09-19T08:55:56.581Z,2252
2018-09-19T08:57:05.623Z,2260
2018-09-19T08:58:14.518Z,2276
2018-09-19T08:59:23.174Z,2280
2018-09-19T09:00:31.810Z,2308
2018-09-19T09:01:41.250Z,2320
2018-09-19T09:02:49.902Z,2332
2018-09-19T09:03:59.073Z,2344
2018-09-19T09:05:07.735Z,2368
2018-09-19T09:06:16.704Z,2372
2018-09-19T09:07:25.348Z,2388
2018-09-19T09:08:34.545Z,2384
2018-09-19T09:09:43.712Z,2412
2018-09-19T09:10:52.638Z,2428
2018-09-19T09:12:01.294Z,2448
2018-09-19T09:13:09.944Z,2440
2018-09-19T09:14:18.586Z,2404
2018-09-19T09:15:27.504Z,2420
2018-09-19T09:16:36.154Z,2436
2018-09-19T09:17:45.074Z,2448
2018-09-19T09:18:53.985Z,2440
2018-09-19T09:20:03.072Z,2432
2018-09-19T09:21:11.923Z,2420
2018-09-19T09:22:20.577Z,2448
2018-09-19T09:23:29.236Z,2448
2018-09-19T09:24:37.888Z,2464
2018-09-19T09:25:46.807Z,2472
2018-09-19T09:26:57.322Z,2476
2018-09-19T09:28:05.810Z,2472
2018-09-19T09:29:14.471Z,2500
2018-09-19T09:30:24.247Z,2492
2018-09-19T09:31:32.887Z,2492
2018-09-19T09:32:41.810Z,2436
2018-09-19T09:33:50.724Z,2408
2018-09-19T09:34:59.385Z,2424
2018-09-19T09:36:08.303Z,2372
2018-09-19T09:37:16.978Z,2428
2018-09-19T09:38:26.164Z,2416
2018-09-19T09:39:35.081Z,2424
2018-09-19T09:40:43.740Z,2488
2018-09-19T09:41:52.906Z,2216
2018-09-19T09:43:01.563Z,2224
2018-09-19T09:44:10.211Z,2404
2018-09-19T09:45:18.869Z,2736
2018-09-19T09:46:27.514Z,2804
2018-09-19T09:47:36.170Z,2600
2018-09-19T09:48:44.819Z,1988
2018-09-19T09:49:53.754Z,2292
2018-09-19T09:51:02.402Z,2892
2018-09-19T09:52:11.591Z,2992
2018-09-19T09:53:20.348Z,3032
2018-09-19T09:54:28.896Z,2840
2018-09-19T09:55:37.546Z,2736
2018-09-19T09:56:46.195Z,2704
2018-09-19T09:57:55.115Z,2632
2018-09-19T09:59:03.769Z,2620
2018-09-19T10:00:12.425Z,2616
2018-09-19T10:01:21.076Z,2580
2018-09-19T10:02:30.280Z,2584
2018-09-19T10:03:39.183Z,2512
2018-09-19T10:04:47.839Z,2552
2018-09-19T10:05:56.496Z,2584
2018-09-19T10:07:05.441Z,2616
2018-09-19T10:08:14.089Z,2668
2018-09-19T10:09:23.008Z,2704
2018-09-19T10:10:31.656Z,2732
2018-09-19T10:11:40.308Z,2728
2018-09-19T10:12:48.967Z,2792
2018-09-19T10:13:57.897Z,2832
2018-09-19T10:15:07.135Z,2804
2018-09-19T10:16:16.048Z,2852
2018-09-19T10:17:24.731Z,2984
2018-09-19T10:18:33.577Z,3196
2018-09-19T10:19:42.294Z,4172
2018-09-19T10:20:50.967Z,4400
2018-09-19T10:21:59.623Z,3972
2018-09-19T10:23:08.273Z,4844
2018-09-19T10:24:17.190Z,4624
2018-09-19T10:25:26.103Z,4568
2018-09-19T10:26:34.760Z,3840
2018-09-19T10:27:43.407Z,3820
2018-09-19T10:28:52.070Z,4004
2018-09-19T10:30:00.985Z,4984
2018-09-19T10:31:09.925Z,4556
2018-09-19T10:32:18.560Z,4908
2018-09-19T10:33:27.471Z,5128
2018-09-19T10:34:36.388Z,5444
2018-09-19T10:35:45.043Z,4716
2018-09-19T10:36:53.963Z,5016
2018-09-19T10:38:02.885Z,4720
2018-09-19T10:39:11.531Z,5108
2018-09-19T10:40:20.443Z,4796
2018-09-19T10:41:29.099Z,5260
2018-09-19T10:42:38.012Z,4864
2018-09-19T10:43:46.700Z,5068
2018-09-19T10:44:55.311Z,4240
2018-09-19T10:46:04.239Z,3588
2018-09-19T10:47:13.144Z,3460
2018-09-19T10:48:21.800Z,5220
2018-09-19T10:49:30.505Z,4372
2018-09-19T10:50:39.480Z,4012
2018-09-19T10:51:48.133Z,3396
2018-09-19T10:52:56.789Z,3136
2018-09-19T10:54:05.447Z,3360
2018-09-19T10:55:14.094Z,4604
2018-09-19T10:56:23.014Z,4316
2018-09-19T10:57:31.926Z,4304
2018-09-19T10:58:40.591Z,4080
2018-09-19T10:59:49.496Z,4308
2018-09-19T11:00:58.415Z,5500
2018-09-19T11:02:07.597Z,4436
2018-09-19T11:03:16.257Z,4048
2018-09-19T11:04:24.902Z,3804
2018-09-19T11:05:33.594Z,4092
2018-09-19T11:06:42.518Z,4940
2018-09-19T11:07:51.576Z,4948
2018-09-19T11:09:00.230Z,6024
2018-09-19T11:10:08.896Z,4716
2018-09-19T11:11:17.829Z,4664
2018-09-19T11:12:26.763Z,4596
2018-09-19T11:13:35.962Z,5368
2018-09-19T11:14:45.214Z,4992
2018-09-19T11:15:54.458Z,4408
2018-09-19T11:17:03.754Z,4008
2018-09-19T11:18:12.486Z,3940
2018-09-19T11:19:21.228Z,3952
2018-09-19T11:20:29.920Z,4976
2018-09-19T11:21:38.632Z,5172
2018-09-19T11:22:47.827Z,4088
2018-09-19T11:23:57.006Z,4872
2018-09-19T11:25:06.441Z,4292
2018-09-19T11:26:15.430Z,4140
2018-09-19T11:27:24.608Z,4808
2018-09-19T11:28:33.482Z,5828
2018-09-19T11:29:42.223Z,5688
2018-09-19T11:30:50.878Z,4268
2018-09-19T11:31:59.522Z,3756
2018-09-19T11:33:08.440Z,3300
2018-09-19T11:34:17.124Z,3292
2018-09-19T11:35:25.788Z,3620
2018-09-19T11:36:34.691Z,3792
2018-09-19T11:37:43.346Z,4864
2018-09-19T11:38:52.258Z,4264
2018-09-19T11:40:00.920Z,3988
2018-09-19T11:41:09.826Z,3440
2018-09-19T11:42:18.746Z,2996
2018-09-19T11:43:27.673Z,3712
2018-09-19T11:44:36.331Z,2536
2018-09-19T11:45:44.981Z,2832
2018-09-19T11:46:53.629Z,3024
2018-09-19T11:48:02.540Z,3496
2018-09-19T11:49:11.190Z,3464
2018-09-19T11:50:19.852Z,3700
2018-09-19T11:51:28.760Z,3664
2018-09-19T11:52:37.425Z,4192
2018-09-19T11:53:46.072Z,4284
2018-09-19T11:54:54.744Z,3264
2018-09-19T11:56:03.392Z,3508
2018-09-19T11:57:12.048Z,2556
2018-09-19T11:58:20.718Z,2732
2018-09-19T11:59:29.383Z,2888
2018-09-19T12:00:38.032Z,2700
2018-09-19T12:01:46.941Z,2888
2018-09-19T12:02:55.603Z,3908
2018-09-19T12:04:04.512Z,3140
2018-09-19T12:05:13.159Z,3500
2018-09-19T12:06:21.810Z,3400
2018-09-19T12:07:30.460Z,2416
2018-09-19T12:08:39.121Z,3900
2018-09-19T12:09:47.768Z,4404
2018-09-19T12:10:56.425Z,4496
2018-09-19T12:12:05.066Z,3848
2018-09-19T12:13:13.727Z,3508
2018-09-19T12:14:22.654Z,3376
2018-09-19T12:15:31.309Z,3284
2018-09-19T12:16:40.489Z,3080
2018-09-19T12:17:49.150Z,3092
2018-09-19T12:18:57.805Z,3560
2018-09-19T12:20:06.454Z,3996
2018-09-19T12:21:15.097Z,3788
2018-09-19T12:22:23.769Z,2768
2018-09-19T12:23:32.425Z,3016
2018-09-19T12:24:41.081Z,3432
2018-09-19T12:25:49.739Z,3272
2018-09-19T12:26:58.642Z,2952
2018-09-19T12:28:07.303Z,4232
2018-09-19T12:29:15.947Z,3396
2018-09-19T12:30:24.609Z,3656
2018-09-19T12:31:33.252Z,4324
2018-09-19T12:32:41.909Z,4180
2018-09-19T12:33:50.557Z,4416
2018-09-19T12:34:59.486Z,4328
2018-09-19T12:36:08.147Z,4480
2018-09-19T12:37:16.801Z,3956
2018-09-19T12:38:25.453Z,3892
2018-09-19T12:39:34.161Z,3824
2018-09-19T12:40:42.772Z,3772
2018-09-19T12:41:51.681Z,3488
2018-09-19T12:43:00.333Z,3836
2018-09-19T12:44:08.985Z,3948
2018-09-19T12:45:17.646Z,4308
2018-09-19T12:46:26.296Z,4700
2018-09-19T12:47:35.209Z,4584
2018-09-19T12:48:43.853Z,4516
2018-09-19T12:49:52.512Z,4400
2018-09-19T12:51:01.166Z,3624
2018-09-19T12:52:09.824Z,4224
2018-09-19T12:53:18.515Z,4120
2018-09-19T12:54:27.131Z,4636
2018-09-19T12:55:35.782Z,4724
2018-09-19T12:56:44.442Z,4428
2018-09-19T12:57:53.346Z,3820
2018-09-19T12:59:02.002Z,3608
2018-09-19T13:00:10.660Z,3396
2018-09-19T13:01:19.601Z,3640
2018-09-19T13:02:28.847Z,4172
2018-09-19T13:03:37.497Z,3296
2018-09-19T13:04:46.149Z,3652
2018-09-19T13:05:54.831Z,3944
2018-09-19T13:07:03.458Z,3624
2018-09-19T13:08:12.109Z,3320
2018-09-19T13:09:20.761Z,2844
2018-09-19T13:10:29.416Z,2828
2018-09-19T13:11:38.073Z,2652
2018-09-19T13:12:46.722Z,2680
2018-09-19T13:13:55.645Z,2836
2018-09-19T13:15:04.297Z,3000
2018-09-19T13:16:12.950Z,2836
2018-09-19T13:17:21.600Z,2896
2018-09-19T13:18:30.516Z,3004
2018-09-19T13:19:39.166Z,2836
2018-09-19T13:20:47.820Z,2452
2018-09-19T13:21:56.480Z,2136
2018-09-19T13:23:05.389Z,2876
2018-09-19T13:24:14.302Z,3132
2018-09-19T13:25:23.469Z,3524
2018-09-19T13:26:32.125Z,3424
2018-09-19T13:27:40.781Z,3356
2018-09-19T13:28:49.433Z,2388
2018-09-19T13:29:58.077Z,2152
2018-09-19T13:31:06.735Z,2056
2018-09-19T13:32:15.651Z,2340
2018-09-19T13:33:24.568Z,2228
2018-09-19T13:34:33.215Z,2424
2018-09-19T13:35:41.869Z,2452
2018-09-19T13:36:50.525Z,2620
2018-09-19T13:37:59.440Z,2788
2018-09-19T13:39:08.094Z,3700
2018-09-19T13:40:16.742Z,3276
2018-09-19T13:41:25.397Z,3120
2018-09-19T13:42:34.051Z,2772
2018-09-19T13:43:42.707Z,3292
2018-09-19T13:44:51.355Z,3200
2018-09-19T13:46:00.008Z,2808
2018-09-19T13:47:08.659Z,2512
2018-09-19T13:48:17.318Z,2376
2018-09-19T13:49:25.967Z,2320
2018-09-19T13:50:34.622Z,2312
2018-09-19T13:51:43.276Z,2360
2018-09-19T13:52:52.196Z,2376
2018-09-19T13:54:00.849Z,2500
2018-09-19T13:55:10.030Z,2540
2018-09-19T13:56:18.679Z,2364
2018-09-19T13:57:27.329Z,2252
2018-09-19T13:58:35.991Z,2200
2018-09-19T13:59:44.639Z,2176
2018-09-19T14:00:53.286Z,2220
2018-09-19T14:02:01.947Z,2216
2018-09-19T14:03:10.597Z,2204
2018-09-19T14:04:19.996Z,2208
2018-09-19T14:05:28.532Z,2088
2018-09-19T14:06:37.188Z,2184
2018-09-19T14:07:45.831Z,2156
2018-09-19T14:08:54.484Z,2140
2018-09-19T14:10:03.162Z,2128
2018-09-19T14:11:11.796Z,2176
2018-09-19T14:12:20.513Z,2152
2018-09-19T14:13:29.093Z,2196
2018-09-19T14:14:37.743Z,2108
2018-09-19T14:15:46.395Z,2112
2018-09-19T14:16:55.322Z,2116
2018-09-19T14:18:03.968Z,2080
2018-09-19T14:19:12.891Z,2040
2018-09-19T14:20:21.538Z,2060
2018-09-19T14:21:30.199Z,2048
2018-09-19T14:22:38.847Z,1640
2018-09-19T14:23:47.504Z,1988
2018-09-19T14:24:56.148Z,2016
2018-09-19T14:26:05.073Z,2052
2018-09-19T14:27:14.252Z,2180
2018-09-19T14:28:23.263Z,2324
2018-09-19T14:29:32.206Z,2384
2018-09-19T14:30:41.121Z,2240
2018-09-19T14:31:49.776Z,2124
2018-09-19T14:32:58.434Z,1972
2018-09-19T14:34:07.088Z,2004
2018-09-19T14:35:15.735Z,2096
2018-09-19T14:36:24.654Z,2052
2018-09-19T14:37:33.308Z,2004
2018-09-19T14:38:41.969Z,2036
2018-09-19T14:39:50.613Z,2160
2018-09-19T14:40:59.802Z,2020
2018-09-19T14:42:08.716Z,1944
2018-09-19T14:43:17.379Z,1580
2018-09-19T14:44:26.020Z,1840
2018-09-19T14:45:34.940Z,1848
2018-09-19T14:46:43.592Z,1804
2018-09-19T14:47:52.518Z,1780
2018-09-19T14:49:01.169Z,1804
2018-09-19T14:50:09.815Z,1872
2018-09-19T14:51:18.727Z,2116
2018-09-19T14:52:27.377Z,2432
2018-09-19T14:53:36.036Z,2300
2018-09-19T14:54:44.686Z,2172
2018-09-19T14:55:53.343Z,2060
2018-09-19T14:57:02.263Z,1940
2018-09-19T14:58:11.180Z,1812
2018-09-19T14:59:19.829Z,1944
2018-09-19T15:00:28.614Z,2028
2018-09-19T15:01:37.128Z,1864
2018-09-19T15:02:45.785Z,1724
2018-09-19T15:03:54.699Z,1612
2018-09-19T15:05:03.353Z,1484
2018-09-19T15:06:12.001Z,1580
2018-09-19T15:07:20.656Z,1432
2018-09-19T15:08:29.577Z,1500
2018-09-19T15:09:38.231Z,1544
2018-09-19T15:10:46.884Z,1704
2018-09-19T15:11:55.535Z,1760
2018-09-19T15:13:04.188Z,1808
2018-09-19T15:14:12.845Z,2236
2018-09-19T15:15:21.502Z,2260
2018-09-19T15:16:30.149Z,2108
2018-09-19T15:17:38.805Z,1988
2018-09-19T15:18:47.458Z,1952
2018-09-19T15:19:56.113Z,1792
2018-09-19T15:21:04.762Z,1628
2018-09-19T15:22:13.679Z,1596
2018-09-19T15:23:22.332Z,1528
2018-09-19T15:24:30.991Z,1444
2018-09-19T15:25:39.643Z,1472
2018-09-19T15:26:48.294Z,1488
2018-09-19T15:27:56.945Z,1500
2018-09-19T15:29:05.595Z,1456
2018-09-19T15:30:14.254Z,1428
2018-09-19T15:31:22.913Z,1560
2018-09-19T15:32:31.559Z,1540
2018-09-19T15:33:40.204Z,1704
2018-09-19T15:34:48.861Z,1844
2018-09-19T15:35:57.837Z,1832
2018-09-19T15:37:06.487Z,1756
2018-09-19T15:38:15.411Z,1888
2018-09-19T15:39:24.061Z,1972
2018-09-19T15:40:32.714Z,1976
2018-09-19T15:41:41.369Z,1972
2018-09-19T15:42:50.278Z,1736
2018-09-19T15:43:58.933Z,1528
2018-09-19T15:45:07.584Z,1468
2018-09-19T15:46:16.243Z,1404
2018-09-19T15:47:24.906Z,1324
2018-09-19T15:48:33.600Z,1328